Time;durP1;ratioP1;P1;durP2;ratioP2;P2;SDS_P1;SDS_P2;PMS_P1;PMS_P2;Temp;Humidity;BMP_temperature;BMP_pressure;BME280_temperature;BME280_humidity;BME280_pressure;Samples;Min_cycle;Max_cycle;Signal;HPM_P1;HPM_P2
2021/06/11 00:00:51;;;;;;;4.13;2.58;;;21.60;99.90;;;;;;4983944;28;20030;-82
2021/06/11 00:03:18;;;;;;;3.85;2.70;;;21.60;99.90;;;;;;4978461;28;20480;-82
2021/06/11 00:05:44;;;;;;;6.68;2.72;;;21.60;99.90;;;;;;4978580;28;20066;-82
2021/06/11 00:08:10;;;;;;;4.85;2.83;;;21.60;99.90;;;;;;4974876;28;20031;-82
2021/06/11 00:10:37;;;;;;;4.95;2.95;;;21.50;99.90;;;;;;4980009;28;20035;-82
2021/06/11 00:13:03;;;;;;;5.15;2.55;;;21.50;99.90;;;;;;4974175;28;20030;-82
2021/06/11 00:15:29;;;;;;;4.82;2.85;;;21.50;99.90;;;;;;4977858;28;20096;-82
2021/06/11 00:17:55;;;;;;;3.00;2.70;;;21.50;99.90;;;;;;4971190;28;20070;-82
2021/06/11 00:20:22;;;;;;;6.18;2.72;;;21.50;99.90;;;;;;4981778;28;20038;-82
2021/06/11 00:22:49;;;;;;;7.18;3.22;;;21.50;99.90;;;;;;4972479;28;20136;-82
2021/06/11 00:25:19;;;;;;;4.47;2.63;;;21.40;99.90;;;;;;4979988;28;20035;-81
2021/06/11 00:27:45;;;;;;;4.78;3.13;;;21.40;99.90;;;;;;4974523;28;20031;-81
2021/06/11 00:30:12;;;;;;;4.10;3.05;;;21.40;99.90;;;;;;4975994;28;20026;-82
2021/06/11 00:32:38;;;;;;;7.85;3.15;;;21.40;99.90;;;;;;4973948;28;20031;-81
2021/06/11 00:35:06;;;;;;;6.70;3.08;;;21.30;99.90;;;;;;4979267;28;20022;-81
2021/06/11 00:37:32;;;;;;;4.35;3.28;;;21.30;99.90;;;;;;4972985;28;20109;-81
2021/06/11 00:39:58;;;;;;;5.85;2.85;;;21.30;99.90;;;;;;4974826;28;20126;-82
2021/06/11 00:42:25;;;;;;;7.75;3.50;;;21.30;99.90;;;;;;4973441;28;20056;-82
2021/06/11 00:44:51;;;;;;;4.53;2.80;;;21.30;99.90;;;;;;4965114;28;20054;-82
2021/06/11 00:47:16;;;;;;;6.65;3.60;;;21.30;99.90;;;;;;4983403;28;20516;-82
2021/06/11 00:49:44;;;;;;;6.07;2.83;;;21.20;99.90;;;;;;4975507;28;20472;-81
2021/06/11 00:52:10;;;;;;;5.28;3.13;;;21.20;99.90;;;;;;4978045;28;20442;-81
2021/06/11 00:54:35;;;;;;;7.40;3.42;;;21.10;99.90;;;;;;4974235;28;20027;-82
2021/06/11 00:57:01;;;;;;;5.90;3.35;;;21.10;99.90;;;;;;4978691;28;20045;-82
2021/06/11 00:59:28;;;;;;;5.63;3.50;;;21.00;99.90;;;;;;4977837;28;20054;-82
2021/06/11 01:01:54;;;;;;;7.90;3.30;;;21.00;99.90;;;;;;4976679;28;20070;-81
2021/06/11 01:04:19;;;;;;;4.35;3.20;;;21.00;99.90;;;;;;4977427;28;20479;-81
2021/06/11 01:06:48;;;;;;;6.18;3.00;;;20.90;99.90;;;;;;4980193;28;20048;-81
2021/06/11 01:09:14;;;;;;;6.80;3.42;;;20.90;99.90;;;;;;4976708;28;20030;-81
2021/06/11 01:11:42;;;;;;;6.03;3.25;;;20.90;99.90;;;;;;4981684;28;20035;-80
2021/06/11 01:14:09;;;;;;;5.13;3.95;;;20.90;99.90;;;;;;4976533;28;20023;-81
2021/06/11 01:16:37;;;;;;;5.70;3.45;;;20.80;99.90;;;;;;4982335;28;20039;-81
2021/06/11 01:19:03;;;;;;;4.78;3.42;;;20.80;99.90;;;;;;4977938;28;20113;-81
2021/06/11 01:21:31;;;;;;;6.60;3.70;;;20.80;99.90;;;;;;4973759;28;20035;-80
2021/06/11 01:24:18;;;;;;;5.10;3.33;;;20.80;99.90;;;;;;4974896;28;20490;-81
2021/06/11 01:26:50;;;;;;;5.95;3.60;;;20.80;99.90;;;;;;4982362;28;20178;-81
2021/06/11 01:29:24;;;;;;;5.95;3.88;;;20.80;99.90;;;;;;4977214;28;20209;-81
2021/06/11 01:31:57;;;;;;;5.68;3.42;;;20.80;99.90;;;;;;4976566;28;20034;-80
2021/06/11 01:34:31;;;;;;;4.00;3.30;;;20.80;99.90;;;;;;4977675;28;20046;-80
2021/06/11 01:37:05;;;;;;;7.72;3.35;;;20.80;99.90;;;;;;4975535;28;20019;-81
2021/06/11 01:39:32;;;;;;;4.55;3.40;;;20.80;99.90;;;;;;4980599;28;20026;-81
2021/06/11 01:41:59;;;;;;;5.20;3.63;;;20.80;99.90;;;;;;4975374;28;20030;-81
2021/06/11 01:44:26;;;;;;;4.72;3.53;;;20.80;99.90;;;;;;4978128;28;20023;-80
2021/06/11 01:46:55;;;;;;;6.03;3.63;;;20.70;99.90;;;;;;4975467;28;20121;-81
2021/06/11 01:49:23;;;;;;;6.13;4.10;;;20.70;99.90;;;;;;4978496;28;20052;-81
2021/06/11 01:51:49;;;;;;;6.75;3.50;;;20.70;99.90;;;;;;4976542;28;20022;-81
2021/06/11 01:54:18;;;;;;;5.03;3.83;;;20.70;99.90;;;;;;4971461;28;20029;-81
2021/06/11 01:56:45;;;;;;;4.13;3.80;;;20.70;99.90;;;;;;4975947;28;20107;-80
2021/06/11 01:59:11;;;;;;;5.65;3.70;;;20.70;99.90;;;;;;4976724;28;20407;-82
2021/06/11 02:01:37;;;;;;;7.45;4.30;;;20.70;99.90;;;;;;4975362;28;20035;-81
2021/06/11 02:04:04;;;;;;;5.40;3.60;;;20.70;99.90;;;;;;4973749;28;20022;-93
2021/06/11 02:06:32;;;;;;;4.57;3.78;;;20.70;99.90;;;;;;4977013;28;20060;-94
2021/06/11 02:08:58;;;;;;;5.32;3.78;;;20.70;99.90;;;;;;4974423;28;20037;-94
2021/06/11 02:11:24;;;;;;;6.45;3.85;;;20.60;99.90;;;;;;4972826;28;20019;-88
2021/06/11 02:13:52;;;;;;;4.35;3.95;;;20.60;99.90;;;;;;4972798;28;20035;-94
2021/06/11 02:16:19;;;;;;;4.60;3.88;;;20.60;99.90;;;;;;4976183;28;20038;-93
2021/06/11 02:18:46;;;;;;;4.43;3.88;;;20.60;99.90;;;;;;4981740;28;20030;-82
2021/06/11 02:21:14;;;;;;;5.07;3.70;;;20.60;99.90;;;;;;4971398;28;20031;-81
2021/06/11 02:23:40;;;;;;;6.22;4.05;;;20.60;99.90;;;;;;4971676;28;20039;-82
2021/06/11 02:26:09;;;;;;;4.50;3.65;;;20.60;99.90;;;;;;4976605;28;20038;-82
2021/06/11 02:28:34;;;;;;;5.13;4.00;;;20.60;99.90;;;;;;4972168;28;20022;-81
2021/06/11 02:31:01;;;;;;;5.55;3.78;;;20.60;99.90;;;;;;4974959;28;20025;-81
2021/06/11 02:33:27;;;;;;;4.95;3.88;;;20.60;99.90;;;;;;4972047;28;20026;-82
2021/06/11 02:35:54;;;;;;;5.75;3.70;;;20.60;99.90;;;;;;4974900;28;20521;-82
2021/06/11 02:38:21;;;;;;;6.75;3.78;;;20.70;99.90;;;;;;4971719;28;20033;-82
2021/06/11 02:40:48;;;;;;;4.18;3.80;;;20.70;99.90;;;;;;4980843;28;20026;-82
2021/06/11 02:43:15;;;;;;;4.63;4.10;;;20.70;99.90;;;;;;4972337;28;20077;-82
2021/06/11 02:45:53;;;;;;;6.43;4.07;;;20.60;99.90;;;;;;4977185;28;20026;-81
2021/06/11 02:48:25;;;;;;;5.15;3.92;;;20.50;99.90;;;;;;4972895;28;20041;-81
2021/06/11 02:51:10;;;;;;;4.45;3.97;;;20.40;99.90;;;;;;4978797;28;20023;-81
2021/06/11 02:53:37;;;;;;;6.00;3.63;;;20.40;99.90;;;;;;4972952;28;20054;-81
2021/06/11 02:56:18;;;;;;;5.60;4.10;;;20.40;99.90;;;;;;4973977;28;20093;-81
2021/06/11 02:58:52;;;;;;;6.70;3.80;;;20.30;99.90;;;;;;4973532;28;20061;-81
2021/06/11 03:01:19;;;;;;;5.78;4.38;;;20.30;99.90;;;;;;4978792;28;20242;-81
2021/06/11 03:03:45;;;;;;;3.88;3.47;;;20.30;99.90;;;;;;4973352;28;20121;-81
2021/06/11 03:06:12;;;;;;;7.22;4.05;;;20.30;99.90;;;;;;4974349;28;20065;-81
2021/06/11 03:08:41;;;;;;;4.57;3.55;;;20.30;99.90;;;;;;4975602;28;20036;-81
2021/06/11 03:11:12;;;;;;;8.52;3.70;;;20.30;99.90;;;;;;4978919;28;20062;-81
2021/06/11 03:13:40;;;;;;;5.10;3.75;;;20.30;99.90;;;;;;4976662;28;20125;-82
2021/06/11 03:16:06;;;;;;;5.68;4.38;;;20.30;99.90;;;;;;4982575;28;20097;-81
2021/06/11 03:18:57;;;;;;;6.15;4.47;;;20.20;99.90;;;;;;4965147;28;20113;-81
2021/06/11 03:21:31;;;;;;;5.40;3.85;;;20.20;99.90;;;;;;4980293;28;20037;-82
2021/06/11 03:24:00;;;;;;;;;;;20.20;99.90;;;;;;4980852;28;20105;-81
2021/06/11 03:26:32;;;;;;;7.40;4.35;;;20.10;99.90;;;;;;4982046;28;20375;-81
2021/06/11 03:29:01;;;;;;;5.25;4.38;;;20.10;99.90;;;;;;4977924;28;20436;-81
2021/06/11 03:31:34;;;;;;;6.53;4.20;;;20.10;99.90;;;;;;4986515;28;20034;-81
2021/06/11 03:34:06;;;;;;;6.43;4.10;;;20.00;99.90;;;;;;4977585;28;20138;-81
2021/06/11 03:36:40;;;;;;;6.47;4.35;;;20.00;99.90;;;;;;4986218;28;20590;-81
2021/06/11 03:39:11;;;;;;;5.97;4.55;;;20.00;99.90;;;;;;4975637;28;20519;-81
2021/06/11 03:41:38;;;;;;;6.15;4.55;;;19.90;99.90;;;;;;4984196;28;20022;-81
2021/06/11 03:44:08;;;;;;;7.22;4.82;;;19.90;99.90;;;;;;4977771;28;20038;-81
2021/06/11 03:46:37;;;;;;;6.30;4.82;;;19.80;99.90;;;;;;4983345;28;20447;-81
2021/06/11 03:49:04;;;;;;;6.22;4.93;;;19.80;99.90;;;;;;4975372;28;20031;-81
2021/06/11 03:51:30;;;;;;;8.35;4.55;;;19.80;99.90;;;;;;4982920;28;20046;-81
2021/06/11 03:53:58;;;;;;;6.57;4.97;;;19.80;99.90;;;;;;4978349;28;20029;-81
2021/06/11 03:56:26;;;;;;;6.30;5.13;;;19.80;99.90;;;;;;4983684;28;20026;-81
2021/06/11 03:58:53;;;;;;;5.38;4.88;;;19.80;99.90;;;;;;4976279;28;20443;-81
2021/06/11 04:01:23;;;;;;;7.68;5.18;;;19.70;99.90;;;;;;4981727;28;20058;-82
2021/06/11 04:03:49;;;;;;;5.32;4.80;;;19.80;99.90;;;;;;4976252;28;20081;-82
2021/06/11 04:06:17;;;;;;;6.70;4.50;;;19.70;99.90;;;;;;4981517;28;20034;-82
2021/06/11 04:08:43;;;;;;;5.85;5.15;;;19.70;99.90;;;;;;4976715;28;20518;-81
2021/06/11 04:11:16;;;;;;;9.98;5.13;;;19.70;99.90;;;;;;4983435;28;20035;-82
2021/06/11 04:13:51;;;;;;;8.70;5.27;;;19.70;99.90;;;;;;4976277;28;20113;-82
2021/06/11 04:16:43;;;;;;;10.65;5.53;;;19.60;99.90;;;;;;4983976;28;20363;-81
2021/06/11 04:19:15;;;;;;;6.32;5.13;;;19.60;99.90;;;;;;4976754;28;20633;-81
2021/06/11 04:21:42;;;;;;;6.43;4.65;;;19.60;99.90;;;;;;4976684;28;20034;-82
2021/06/11 04:24:11;;;;;;;6.03;5.13;;;19.60;99.90;;;;;;4974251;28;20085;-87
2021/06/11 04:26:40;;;;;;;6.57;4.38;;;19.60;99.90;;;;;;4973286;28;20448;-82
2021/06/11 04:29:16;;;;;;;5.32;4.70;;;19.60;99.90;;;;;;4975357;28;20027;-82
2021/06/11 04:31:42;;;;;;;7.93;5.10;;;19.60;99.90;;;;;;4975832;28;20110;-82
2021/06/11 04:34:14;;;;;;;5.95;5.13;;;19.60;99.90;;;;;;4973482;28;20034;-82
2021/06/11 04:36:41;;;;;;;7.15;5.22;;;19.60;99.90;;;;;;4976819;28;20061;-81
2021/06/11 04:39:07;;;;;;;7.65;4.75;;;19.70;99.90;;;;;;4975399;28;20031;-81
2021/06/11 04:41:33;;;;;;;8.05;5.18;;;19.70;99.90;;;;;;4975964;28;20423;-81
2021/06/11 04:44:01;;;;;;;7.63;5.65;;;19.70;99.90;;;;;;4975247;28;20019;-81
2021/06/11 04:46:28;;;;;;;6.63;5.07;;;19.80;99.90;;;;;;4978145;28;20030;-81
2021/06/11 04:48:54;;;;;;;6.20;4.85;;;19.80;99.90;;;;;;4975160;28;20035;-81
2021/06/11 04:51:20;;;;;;;5.88;5.28;;;19.80;99.90;;;;;;4966345;28;20117;-82
2021/06/11 04:53:45;;;;;;;9.13;5.22;;;19.70;99.90;;;;;;4988115;28;20027;-81
2021/06/11 04:56:12;;;;;;;6.15;4.80;;;19.70;99.90;;;;;;4980415;28;20061;-81
2021/06/11 04:58:40;;;;;;;5.88;5.10;;;19.70;99.90;;;;;;4974664;28;20046;-82
2021/06/11 05:01:07;;;;;;;8.68;5.45;;;19.70;99.90;;;;;;4975219;28;20019;-81
2021/06/11 05:03:33;;;;;;;9.02;5.55;;;19.70;99.90;;;;;;4975189;28;20033;-82
2021/06/11 05:06:00;;;;;;;7.55;5.68;;;19.70;99.90;;;;;;4979834;28;20538;-81
2021/06/11 05:08:26;;;;;;;11.13;6.18;;;19.70;99.90;;;;;;4975671;28;20026;-81
2021/06/11 05:10:52;;;;;;;7.55;5.38;;;19.70;99.90;;;;;;4980006;28;20121;-81
2021/06/11 05:13:18;;;;;;;8.90;5.75;;;19.70;99.90;;;;;;4974571;28;20030;-81
2021/06/11 05:15:43;;;;;;;7.95;5.50;;;19.70;99.90;;;;;;4978087;28;20037;-81
2021/06/11 05:18:09;;;;;;;7.15;5.55;;;19.70;99.90;;;;;;4973163;28;20122;-82
2021/06/11 05:20:37;;;;;;;7.30;4.93;;;19.70;99.90;;;;;;4980608;28;20027;-82
2021/06/11 05:23:03;;;;;;;9.73;5.20;;;19.80;99.90;;;;;;4972333;28;20077;-82
2021/06/11 05:25:29;;;;;;;9.98;5.57;;;19.80;99.90;;;;;;4978637;28;20451;-82
2021/06/11 05:27:55;;;;;;;6.75;5.32;;;19.80;99.90;;;;;;4971549;28;20047;-82
2021/06/11 05:30:23;;;;;;;8.95;4.85;;;19.80;99.90;;;;;;4981298;28;20402;-82
2021/06/11 05:32:49;;;;;;;8.90;4.93;;;19.80;99.90;;;;;;4971845;28;20034;-81
2021/06/11 05:35:15;;;;;;;11.10;5.43;;;19.90;99.90;;;;;;4982767;28;20026;-82
2021/06/11 05:37:40;;;;;;;7.22;5.22;;;20.00;99.90;;;;;;4971538;28;20543;-81
2021/06/11 05:40:07;;;;;;;10.85;4.78;;;20.00;99.90;;;;;;4974668;28;20511;-81
2021/06/11 05:42:33;;;;;;;6.43;4.63;;;20.00;99.90;;;;;;4970833;28;20476;-82
2021/06/11 05:44:59;;;;;;;6.25;4.90;;;20.10;99.90;;;;;;4978190;28;20027;-82
2021/06/11 05:47:25;;;;;;;7.22;5.20;;;20.10;99.90;;;;;;4971247;28;20073;-81
2021/06/11 05:49:50;;;;;;;8.85;5.07;;;20.20;99.90;;;;;;4975706;28;20513;-82
2021/06/11 05:52:17;;;;;;;7.38;4.78;;;20.30;99.90;;;;;;4971506;28;20121;-82
2021/06/11 05:54:44;;;;;;;7.57;4.75;;;20.30;99.90;;;;;;4972032;28;20074;-82
2021/06/11 05:57:10;;;;;;;6.75;4.65;;;20.40;99.90;;;;;;4976041;28;20018;-82
2021/06/11 05:59:36;;;;;;;6.63;4.65;;;20.50;99.90;;;;;;4974842;28;20105;-81
2021/06/11 06:02:02;;;;;;;5.75;4.78;;;20.70;99.90;;;;;;4977578;28;20434;-82
2021/06/11 06:04:27;;;;;;;5.00;4.10;;;20.90;99.90;;;;;;4977928;28;20431;-82
2021/06/11 06:06:53;;;;;;;9.38;4.65;;;21.10;99.90;;;;;;4971267;28;20492;-81
2021/06/11 06:09:19;;;;;;;6.25;4.03;;;21.30;99.90;;;;;;4977007;28;20379;-81
2021/06/11 06:11:44;;;;;;;4.85;4.30;;;21.30;99.90;;;;;;4972422;28;20109;-82
2021/06/11 06:14:10;;;;;;;4.88;4.13;;;21.30;99.90;;;;;;4976203;28;20110;-81
2021/06/11 06:16:36;;;;;;;6.40;3.60;;;21.20;99.90;;;;;;4974127;28;20030;-82
2021/06/11 06:19:03;;;;;;;5.50;4.10;;;21.20;99.90;;;;;;4990325;28;20034;-81
2021/06/11 06:21:33;;;;;;;5.32;3.65;;;21.30;99.90;;;;;;4991786;28;20404;-82
2021/06/11 06:23:59;;;;;;;5.63;4.10;;;21.20;99.90;;;;;;4984228;28;20122;-82
2021/06/11 06:26:27;;;;;;;6.75;3.60;;;21.30;99.90;;;;;;4976857;28;20483;-82
2021/06/11 06:28:53;;;;;;;5.57;3.75;;;21.30;99.90;;;;;;4972730;28;20119;-81
2021/06/11 06:31:19;;;;;;;4.13;3.60;;;21.40;99.90;;;;;;4978902;28;20085;-82
2021/06/11 06:33:44;;;;;;;4.60;3.40;;;21.40;99.90;;;;;;4972473;28;20573;-81
2021/06/11 06:36:10;;;;;;;4.53;3.58;;;21.60;99.90;;;;;;4980405;28;20050;-81
2021/06/11 06:38:37;;;;;;;6.57;3.30;;;21.70;99.90;;;;;;4970021;28;20055;-82
2021/06/11 06:41:03;;;;;;;4.95;3.20;;;21.80;99.90;;;;;;4973249;28;20491;-82
2021/06/11 06:43:30;;;;;;;7.25;3.33;;;21.90;99.90;;;;;;4973020;28;20031;-81
2021/06/11 06:45:57;;;;;;;5.22;3.35;;;21.90;99.90;;;;;;4973049;28;20019;-81
2021/06/11 06:48:23;;;;;;;8.45;3.85;;;21.90;99.90;;;;;;4972623;28;20038;-80
2021/06/11 06:50:49;;;;;;;4.80;3.60;;;21.80;99.90;;;;;;4975261;28;20029;-81
2021/06/11 06:53:18;;;;;;;5.68;3.15;;;21.90;99.90;;;;;;4971727;28;20246;-81
2021/06/11 06:55:44;;;;;;;4.80;3.58;;;21.90;99.90;;;;;;4976597;28;20042;-81
2021/06/11 06:58:10;;;;;;;4.72;3.53;;;21.90;99.90;;;;;;4970532;28;20522;-81
2021/06/11 07:00:35;;;;;;;4.97;3.80;;;21.90;99.90;;;;;;4970994;28;20031;-82
2021/06/11 07:03:02;;;;;;;5.22;3.47;;;22.00;99.90;;;;;;4968709;28;20106;-82
2021/06/11 07:05:28;;;;;;;6.03;3.58;;;22.00;99.90;;;;;;4972493;28;20027;-83
2021/06/11 07:07:53;;;;;;;7.50;3.58;;;22.10;99.90;;;;;;4970349;28;20041;-82
2021/06/11 07:10:20;;;;;;;6.95;3.85;;;22.20;99.90;;;;;;4975438;28;20069;-83
2021/06/11 07:12:46;;;;;;;6.85;4.03;;;22.30;99.90;;;;;;4970331;28;20376;-82
2021/06/11 07:15:11;;;;;;;5.72;3.40;;;22.30;99.90;;;;;;4975397;28;20034;-82
2021/06/11 07:17:40;;;;;;;6.68;4.15;;;22.40;99.90;;;;;;4970140;28;20054;-82
2021/06/11 07:20:08;;;;;;;8.75;3.60;;;22.40;99.90;;;;;;4980230;28;20502;-81
2021/06/11 07:22:34;;;;;;;7.18;4.78;;;22.50;99.90;;;;;;4978944;28;20023;-82
2021/06/11 07:25:04;;;;;;;6.45;3.38;;;22.50;99.90;;;;;;4975506;28;20034;-83
2021/06/11 07:27:33;;;;;;;4.57;3.67;;;22.60;99.90;;;;;;4969508;28;20117;-83
2021/06/11 07:30:09;;;;;;;9.13;3.90;;;22.70;99.90;;;;;;4975985;28;20058;-83
2021/06/11 07:32:36;;;;;;;7.57;3.45;;;22.80;99.90;;;;;;4960422;28;20401;-83
2021/06/11 07:35:03;;;;;;;5.93;3.47;;;22.80;99.90;;;;;;4974937;28;20741;-83
2021/06/11 07:37:29;;;;;;;4.22;3.35;;;23.00;99.90;;;;;;4960156;28;20023;-83
2021/06/11 07:39:54;;;;;;;4.50;3.53;;;23.10;99.90;;;;;;4973865;28;20399;-84
2021/06/11 07:42:20;;;;;;;6.45;3.30;;;23.20;99.90;;;;;;4970940;28;20023;-83
2021/06/11 07:44:46;;;;;;;6.43;3.90;;;23.30;99.90;;;;;;4971374;28;20118;-83
2021/06/11 07:47:12;;;;;;;5.80;3.13;;;23.50;99.90;;;;;;4970395;28;20122;-83
2021/06/11 07:49:41;;;;;;;7.80;3.75;;;23.60;99.90;;;;;;4971484;28;20030;-83
2021/06/11 07:52:07;;;;;;;5.43;3.83;;;23.80;99.90;;;;;;4964361;28;20043;-83
2021/06/11 07:54:33;;;;;;;6.15;3.75;;;23.90;99.90;;;;;;4960918;28;20023;-75
2021/06/11 07:56:59;;;;;;;4.68;3.05;;;24.00;99.90;;;;;;4961105;28;20510;-75
2021/06/11 07:59:24;;;;;;;5.07;3.10;;;24.20;99.90;;;;;;4968472;28;20342;-75
2021/06/11 08:01:50;;;;;;;6.90;3.50;;;24.40;99.90;;;;;;4983685;28;20045;-75
2021/06/11 08:04:16;;;;;;;3.80;3.03;;;24.50;99.90;;;;;;4974733;28;20070;-75
2021/06/11 08:06:43;;;;;;;3.55;3.20;;;24.60;99.90;;;;;;4973116;28;20038;-75
2021/06/11 08:09:09;;;;;;;4.25;3.00;;;24.60;99.90;;;;;;4976166;28;20151;-75
2021/06/11 08:11:36;;;;;;;4.75;3.17;;;24.60;99.90;;;;;;4975569;28;20110;-75
2021/06/11 08:14:02;;;;;;;3.83;2.40;;;24.70;99.90;;;;;;4977733;28;20034;-74
2021/06/11 08:16:28;;;;;;;4.03;3.10;;;24.70;99.90;;;;;;4975658;28;20039;-75
2021/06/11 08:18:53;;;;;;;7.32;2.92;;;24.70;99.90;;;;;;4976456;28;20101;-75
2021/06/11 08:21:20;;;;;;;5.55;3.10;;;24.70;99.90;;;;;;4978957;28;20443;-75
2021/06/11 08:23:46;;;;;;;5.07;3.25;;;24.70;99.90;;;;;;4962751;28;20035;-76
2021/06/11 08:26:13;;;;;;;3.95;2.90;;;24.70;99.90;;;;;;4978502;28;20506;-75
2021/06/11 08:28:38;;;;;;;5.97;3.53;;;24.60;99.90;;;;;;4973902;28;20050;-75
2021/06/11 08:31:05;;;;;;;4.88;3.10;;;24.60;99.90;;;;;;4975463;28;20113;-75
2021/06/11 08:33:31;;;;;;;5.63;2.92;;;24.50;99.90;;;;;;4973439;28;20052;-75
2021/06/11 08:35:57;;;;;;;5.13;3.25;;;24.50;99.90;;;;;;4976502;28;20035;-75
2021/06/11 08:38:22;;;;;;;5.32;3.10;;;24.50;99.90;;;;;;4974306;28;20402;-75
2021/06/11 08:40:49;;;;;;;5.60;2.72;;;24.50;99.90;;;;;;4981361;28;20045;-75
2021/06/11 08:43:16;;;;;;;4.80;2.92;;;24.70;99.90;;;;;;4972783;28;20113;-76
2021/06/11 08:45:43;;;;;;;5.32;2.92;;;24.90;99.90;;;;;;4982390;28;20664;-76
2021/06/11 08:48:09;;;;;;;4.25;2.67;;;25.00;99.90;;;;;;4973839;28;20057;-76
2021/06/11 08:50:35;;;;;;;4.20;2.78;;;25.20;99.90;;;;;;4978644;28;20027;-75
2021/06/11 08:53:03;;;;;;;5.43;3.08;;;25.30;99.90;;;;;;4972518;28;20023;-75
2021/06/11 08:55:32;;;;;;;5.10;2.83;;;25.50;99.80;;;;;;4974208;28;20130;-76
2021/06/11 08:57:58;;;;;;;5.20;3.20;;;25.80;99.50;;;;;;4959695;28;20129;-75
2021/06/11 09:00:24;;;;;;;2.78;2.47;;;25.90;99.10;;;;;;4973298;28;20022;-74
2021/06/11 09:03:33;;;;;;;5.18;3.40;;;25.80;99.00;;;;;;4956261;28;20081;-74
2021/06/11 09:06:05;;;;;;;4.65;2.63;;;25.70;98.70;;;;;;4947542;28;20034;-74
2021/06/11 09:08:31;;;;;;;5.45;2.70;;;25.50;99.50;;;;;;4965176;28;20189;-74
2021/06/11 09:11:14;;;;;;;5.05;3.05;;;25.40;99.90;;;;;;4979564;28;20105;-74
2021/06/11 09:13:41;;;;;;;4.75;2.97;;;25.30;99.70;;;;;;4973300;28;20117;-74
2021/06/11 09:16:13;;;;;;;5.60;3.70;;;25.20;99.90;;;;;;4972052;28;20039;-74
2021/06/11 09:19:05;;;;;;;3.65;2.63;;;25.20;99.90;;;;;;4979141;28;20530;-74
2021/06/11 09:21:43;;;;;;;8.27;3.30;;;25.20;99.90;;;;;;4985239;28;20027;-74
2021/06/11 09:24:25;;;;;;;3.33;3.00;;;25.20;99.90;;;;;;4973728;28;20030;-74
2021/06/11 09:27:13;;;;;;;4.00;2.88;;;25.20;99.90;;;;;;4993243;28;20050;-74
2021/06/11 09:29:43;;;;;;;5.72;3.00;;;25.30;99.80;;;;;;4975851;28;20101;-74
2021/06/11 09:32:23;;;;;;;8.32;2.97;;;25.30;99.90;;;;;;4978954;28;20018;-74
2021/06/11 09:35:08;;;;;;;5.28;3.00;;;25.40;99.80;;;;;;4975582;28;20090;-75
2021/06/11 09:37:49;;;;;;;5.22;2.95;;;25.80;99.90;;;;;;4945580;28;20058;-75
2021/06/11 09:40:16;;;;;;;4.68;2.47;;;26.20;98.90;;;;;;4976911;28;20014;-74
2021/06/11 09:42:46;;;;;;;2.92;2.45;;;26.50;98.80;;;;;;4971941;28;20491;-86
2021/06/11 09:45:15;;;;;;;5.15;3.00;;;26.70;97.50;;;;;;4972295;28;20038;-74
2021/06/11 09:47:48;;;;;;;4.07;2.55;;;26.80;97.30;;;;;;4973845;28;20039;-75
2021/06/11 09:50:36;;;;;;;4.82;2.95;;;26.90;97.50;;;;;;4976545;28;20471;-74
2021/06/11 09:53:12;;;;;;;5.13;2.35;;;27.00;97.40;;;;;;4972051;28;20019;-75
2021/06/11 09:55:46;;;;;;;4.03;2.70;;;27.00;97.60;;;;;;4970053;28;20118;-75
2021/06/11 09:58:30;;;;;;;3.00;2.50;;;27.00;96.80;;;;;;4974513;28;20276;-75
2021/06/11 10:01:09;;;;;;;6.07;2.55;;;27.00;97.20;;;;;;4975301;28;20165;-75
2021/06/11 10:03:38;;;;;;;5.30;2.53;;;27.20;96.90;;;;;;4971707;28;20027;-75
2021/06/11 10:06:07;;;;;;;4.05;2.45;;;27.30;96.90;;;;;;4981847;28;20034;-76
2021/06/11 10:08:33;;;;;;;3.50;2.70;;;27.40;96.10;;;;;;4972186;28;20023;-75
2021/06/11 10:11:01;;;;;;;3.83;2.35;;;27.50;96.00;;;;;;4976389;28;20031;-74
2021/06/11 10:13:27;;;;;;;4.47;2.58;;;27.50;95.70;;;;;;4974277;28;20646;-75
2021/06/11 10:15:58;;;;;;;5.80;2.47;;;27.50;96.20;;;;;;4972729;28;20042;-75
2021/06/11 10:18:25;;;;;;;4.05;2.33;;;27.40;96.00;;;;;;4973609;28;20105;-74
2021/06/11 10:20:51;;;;;;;4.40;2.40;;;27.50;95.90;;;;;;4979315;28;20117;-75
2021/06/11 10:23:20;;;;;;;8.13;2.83;;;27.50;95.40;;;;;;4974603;28;20407;-74
2021/06/11 10:25:51;;;;;;;2.85;2.45;;;27.50;96.10;;;;;;4972804;28;20026;-74
2021/06/11 10:28:42;;;;;;;3.83;2.72;;;27.60;96.80;;;;;;4971860;28;20035;-74
2021/06/11 10:31:11;;;;;;;5.07;2.55;;;27.70;95.90;;;;;;4973097;28;20027;-74
2021/06/11 10:33:46;;;;;;;5.03;2.85;;;27.70;96.10;;;;;;4982482;28;20410;-74
2021/06/11 10:36:32;;;;;;;10.60;2.70;;;27.80;96.30;;;;;;4979843;28;20747;-74
2021/06/11 10:39:07;;;;;;;4.05;2.95;;;27.90;95.30;;;;;;4978538;28;20041;-74
2021/06/11 10:42:00;;;;;;;4.85;2.78;;;27.90;95.40;;;;;;4984836;28;20030;-74
2021/06/11 10:44:45;;;;;;;4.43;2.65;;;28.00;95.30;;;;;;4973516;28;20046;-74
2021/06/11 10:47:17;;;;;;;7.00;2.63;;;28.00;94.90;;;;;;4970642;28;20522;-74
2021/06/11 10:50:01;;;;;;;4.20;2.50;;;28.20;94.00;;;;;;4974287;28;20105;-74
2021/06/11 10:52:48;;;;;;;5.90;3.17;;;28.30;93.90;;;;;;4975612;28;20042;-74
2021/06/11 10:55:14;;;;;;;5.55;2.40;;;28.40;93.70;;;;;;4975082;28;20522;-74
2021/06/11 10:57:40;;;;;;;6.85;2.20;;;28.50;93.90;;;;;;4972101;28;20051;-73
2021/06/11 11:00:26;;;;;;;4.22;2.35;;;28.60;94.40;;;;;;4971939;28;20030;-73
2021/06/11 11:02:54;;;;;;;6.25;2.35;;;28.70;92.80;;;;;;4971491;28;20476;-73
2021/06/11 11:05:27;;;;;;;4.95;2.17;;;28.70;92.80;;;;;;4981330;28;20022;-73
2021/06/11 11:07:53;;;;;;;5.03;2.33;;;28.70;92.50;;;;;;4970951;28;20038;-73
2021/06/11 11:10:47;;;;;;;4.68;2.38;;;28.40;92.50;;;;;;4980599;28;20031;-73
2021/06/11 11:13:13;;;;;;;4.25;2.50;;;28.20;93.40;;;;;;4971574;28;20039;-73
2021/06/11 11:15:50;;;;;;;4.78;2.47;;;28.20;93.80;;;;;;4979548;28;20158;-72
2021/06/11 11:18:20;;;;;;;6.80;2.40;;;28.30;92.00;;;;;;4977318;28;20026;-73
2021/06/11 11:20:45;;;;;;;3.90;2.60;;;28.50;93.50;;;;;;4982282;28;20081;-73
2021/06/11 11:23:13;;;;;;;5.07;2.88;;;28.20;93.70;;;;;;4975218;28;20031;-74
2021/06/11 11:25:40;;;;;;;4.88;2.78;;;27.90;94.50;;;;;;4980371;28;20019;-73
2021/06/11 11:28:09;;;;;;;9.13;3.15;;;27.70;95.00;;;;;;4970381;28;20123;-73
2021/06/11 11:30:36;;;;;;;4.53;3.30;;;27.30;96.70;;;;;;4978199;28;20022;-75
2021/06/11 11:33:03;;;;;;;7.75;3.17;;;27.10;97.30;;;;;;4975636;28;20058;-73
2021/06/11 11:35:32;;;;;;;6.20;3.03;;;27.30;96.20;;;;;;4978561;28;20025;-75
2021/06/11 11:38:02;;;;;;;6.07;3.20;;;27.40;96.40;;;;;;4977313;28;20065;-74
2021/06/11 11:40:29;;;;;;;5.85;3.10;;;27.50;95.90;;;;;;4981516;28;20022;-73
2021/06/11 11:42:57;;;;;;;6.82;3.20;;;27.30;96.00;;;;;;4982545;28;20510;-75
2021/06/11 11:45:27;;;;;;;6.15;3.35;;;27.20;96.40;;;;;;4975125;28;20026;-74
2021/06/11 11:47:55;;;;;;;6.53;2.88;;;27.50;96.30;;;;;;4966089;28;20034;-74
2021/06/11 11:50:22;;;;;;;6.53;3.03;;;27.80;94.60;;;;;;4965898;28;20038;-74
2021/06/11 11:52:48;;;;;;;3.50;2.80;;;28.00;93.90;;;;;;4958751;28;20035;-74
2021/06/11 11:55:15;;;;;;;4.90;2.88;;;28.20;93.40;;;;;;4975807;28;20027;-74
2021/06/11 11:57:42;;;;;;;8.48;2.92;;;28.20;93.50;;;;;;4974597;28;20039;-83
2021/06/11 12:00:09;;;;;;;5.63;2.70;;;28.50;93.30;;;;;;4979103;28;20038;-74
2021/06/11 12:02:35;;;;;;;3.38;2.38;;;28.70;93.10;;;;;;4974826;28;20384;-74
2021/06/11 12:05:01;;;;;;;3.65;2.50;;;28.80;91.80;;;;;;4972153;28;20031;-75
2021/06/11 12:07:26;;;;;;;4.82;2.30;;;28.90;92.30;;;;;;4973449;28;20117;-86
2021/06/11 12:09:53;;;;;;;5.30;2.53;;;29.00;91.60;;;;;;4984057;28;20411;-82
2021/06/11 12:12:19;;;;;;;5.18;2.75;;;28.80;90.90;;;;;;4977939;28;20026;-71
2021/06/11 12:14:46;;;;;;;7.55;2.70;;;28.40;92.20;;;;;;4975468;28;20420;-82
2021/06/11 12:17:12;;;;;;;5.25;2.65;;;28.40;92.00;;;;;;4988407;28;20069;-84
2021/06/11 12:19:38;;;;;;;5.22;2.60;;;28.50;92.30;;;;;;4979085;28;20114;-85
2021/06/11 12:22:04;;;;;;;5.20;2.80;;;28.70;92.50;;;;;;4986155;28;20491;-84
2021/06/11 12:24:30;;;;;;;5.45;2.30;;;28.80;92.20;;;;;;4979119;28;20026;-84
2021/06/11 12:26:55;;;;;;;3.67;2.53;;;28.80;91.30;;;;;;4972828;28;20023;-84
2021/06/11 12:29:21;;;;;;;4.78;2.70;;;29.10;91.00;;;;;;4977442;28;20499;-84
2021/06/11 12:31:52;;;;;;;3.10;2.47;;;29.30;90.20;;;;;;4978777;28;20534;-85
2021/06/11 12:34:18;;;;;;;9.13;2.72;;;29.40;90.40;;;;;;4972737;28;20042;-84
2021/06/11 12:36:45;;;;;;;2.78;2.53;;;29.60;90.00;;;;;;4971902;28;20377;-84
2021/06/11 12:39:12;;;;;;;4.28;2.40;;;29.80;89.30;;;;;;4975640;28;20494;-84
2021/06/11 12:41:38;;;;;;;7.43;2.20;;;30.00;87.30;;;;;;4971960;28;20369;-83
2021/06/11 12:44:15;;;;;;;4.13;2.50;;;30.20;85.90;;;;;;4963720;28;20034;-84
2021/06/11 12:46:45;;;;;;;7.05;2.15;;;30.00;87.30;;;;;;4978498;28;20431;-84
2021/06/11 12:49:11;;;;;;;3.95;2.20;;;30.00;87.30;;;;;;4979424;28;20097;-84
2021/06/11 12:51:37;;;;;;;4.93;2.50;;;30.20;84.30;;;;;;4973353;28;20051;-84
2021/06/11 12:54:03;;;;;;;4.03;2.47;;;30.20;86.10;;;;;;4975657;28;20333;-84
2021/06/11 12:56:30;;;;;;;4.70;2.55;;;30.00;85.40;;;;;;4974450;28;20026;-84